sensor_id;sensor_type;location;lat;lon;timestamp;pressure;altitude;pressure_sealevel;temperature;humidity
48964;BME280;34776;48.180;16.420;2022-09-03T00:00:18;99751.25;;;15.13;58.52
48964;BME280;34776;48.180;16.420;2022-09-03T00:02:59;99758.53;;;15.11;59.21
48964;BME280;34776;48.180;16.420;2022-09-03T00:05:54;99758.53;;;15.11;60.01
48964;BME280;34776;48.180;16.420;2022-09-03T00:08:35;99756.59;;;15.13;60.48
48964;BME280;34776;48.180;16.420;2022-09-03T00:11:15;99755.00;;;15.11;60.14
48964;BME280;34776;48.180;16.420;2022-09-03T00:16:20;99755.75;;;15.13;59.57
48964;BME280;34776;48.180;16.420;2022-09-03T00:18:51;99753.41;;;15.08;59.68
48964;BME280;34776;48.180;16.420;2022-09-03T00:21:39;99755.34;;;15.06;60.16
48964;BME280;34776;48.180;16.420;2022-09-03T00:24:08;99750.19;;;15.03;59.46
48964;BME280;34776;48.180;16.420;2022-09-03T00:26:35;99763.06;;;14.98;59.44
48964;BME280;34776;48.180;16.420;2022-09-03T00:29:06;99767.22;;;14.89;59.43
48964;BME280;34776;48.180;16.420;2022-09-03T00:32:02;99761.88;;;14.76;60.28
48964;BME280;34776;48.180;16.420;2022-09-03T00:34:40;99760.47;;;14.71;59.86
48964;BME280;34776;48.180;16.420;2022-09-03T00:37:08;99765.19;;;14.67;59.96
48964;BME280;34776;48.180;16.420;2022-09-03T00:39:35;99759.94;;;14.66;59.73
48964;BME280;34776;48.180;16.420;2022-09-03T00:42:18;99757.25;;;14.66;60.75
48964;BME280;34776;48.180;16.420;2022-09-03T00:44:59;99761.88;;;14.64;59.86
48964;BME280;34776;48.180;16.420;2022-09-03T00:47:48;99759.72;;;14.56;60.32
48964;BME280;34776;48.180;16.420;2022-09-03T00:53:15;99766.84;;;14.43;60.86
48964;BME280;34776;48.180;16.420;2022-09-03T01:01:15;99755.91;;;14.33;61.44
48964;BME280;34776;48.180;16.420;2022-09-03T01:03:49;99768.09;;;14.24;60.81
48964;BME280;34776;48.180;16.420;2022-09-03T01:06:23;99765.06;;;14.16;61.16
48964;BME280;34776;48.180;16.420;2022-09-03T01:09:11;99770.41;;;14.16;61.79
48964;BME280;34776;48.180;16.420;2022-09-03T01:30:32;99787.03;;;14.07;62.42
48964;BME280;34776;48.180;16.420;2022-09-03T01:33:43;99784.50;;;14.05;61.96
48964;BME280;34776;48.180;16.420;2022-09-03T01:41:47;99775.06;;;13.99;63.53
48964;BME280;34776;48.180;16.420;2022-09-03T01:52:54;99772.88;;;13.92;62.45
48964;BME280;34776;48.180;16.420;2022-09-03T01:55:53;99778.63;;;13.86;63.21
48964;BME280;34776;48.180;16.420;2022-09-03T01:58:30;99776.94;;;13.85;63.18
48964;BME280;34776;48.180;16.420;2022-09-03T02:01:06;99777.78;;;13.85;62.98
48964;BME280;34776;48.180;16.420;2022-09-03T02:03:37;99763.47;;;13.86;62.98
48964;BME280;34776;48.180;16.420;2022-09-03T02:06:04;99764.34;;;13.87;63.12
48964;BME280;34776;48.180;16.420;2022-09-03T02:08:31;99767.09;;;13.85;63.45
48964;BME280;34776;48.180;16.420;2022-09-03T02:10:57;99770.75;;;13.84;63.27
48964;BME280;34776;48.180;16.420;2022-09-03T02:13:30;99769.00;;;13.83;63.56
48964;BME280;34776;48.180;16.420;2022-09-03T02:15:59;99763.88;;;13.80;63.57
48964;BME280;34776;48.180;16.420;2022-09-03T02:18:37;99769.63;;;13.74;63.56
48964;BME280;34776;48.180;16.420;2022-09-03T02:21:05;99770.03;;;13.68;63.42
48964;BME280;34776;48.180;16.420;2022-09-03T02:23:31;99766.59;;;13.66;63.85
48964;BME280;34776;48.180;16.420;2022-09-03T02:25:59;99763.16;;;13.64;63.78
48964;BME280;34776;48.180;16.420;2022-09-03T02:28:27;99767.75;;;13.62;64.08
48964;BME280;34776;48.180;16.420;2022-09-03T02:30:52;99761.44;;;13.63;64.38
48964;BME280;34776;48.180;16.420;2022-09-03T02:33:18;99761.34;;;13.64;64.92
48964;BME280;34776;48.180;16.420;2022-09-03T02:35:44;99771.94;;;13.66;64.37
48964;BME280;34776;48.180;16.420;2022-09-03T02:38:13;99766.00;;;13.60;64.33
48964;BME280;34776;48.180;16.420;2022-09-03T02:40:39;99767.84;;;13.60;64.28
48964;BME280;34776;48.180;16.420;2022-09-03T02:43:07;99773.47;;;13.55;64.15
48964;BME280;34776;48.180;16.420;2022-09-03T02:45:36;99774.72;;;13.50;64.47
48964;BME280;34776;48.180;16.420;2022-09-03T02:48:09;99769.91;;;13.42;64.77
48964;BME280;34776;48.180;16.420;2022-09-03T02:50:42;99773.50;;;13.41;64.87
48964;BME280;34776;48.180;16.420;2022-09-03T02:53:08;99770.16;;;13.37;64.91
48964;BME280;34776;48.180;16.420;2022-09-03T02:55:34;99777.31;;;13.37;64.90
48964;BME280;34776;48.180;16.420;2022-09-03T02:57:59;99766.00;;;13.33;65.04
48964;BME280;34776;48.180;16.420;2022-09-03T03:00:25;99767.78;;;13.33;65.47
48964;BME280;34776;48.180;16.420;2022-09-03T03:02:54;99764.81;;;13.37;65.40
48964;BME280;34776;48.180;16.420;2022-09-03T03:05:26;99766.47;;;13.40;65.97
48964;BME280;34776;48.180;16.420;2022-09-03T03:07:54;99774.47;;;13.40;65.58
48964;BME280;34776;48.180;16.420;2022-09-03T03:10:20;99773.72;;;13.38;65.79
48964;BME280;34776;48.180;16.420;2022-09-03T03:12:45;99776.47;;;13.36;66.02
48964;BME280;34776;48.180;16.420;2022-09-03T03:15:11;99776.56;;;13.35;65.94
48964;BME280;34776;48.180;16.420;2022-09-03T03:17:36;99774.28;;;13.29;66.46
48964;BME280;34776;48.180;16.420;2022-09-03T03:20:02;99765.34;;;13.30;66.46
48964;BME280;34776;48.180;16.420;2022-09-03T03:22:27;99767.22;;;13.28;66.55
48964;BME280;34776;48.180;16.420;2022-09-03T03:24:52;99767.28;;;13.26;66.71
48964;BME280;34776;48.180;16.420;2022-09-03T03:27:19;99770.06;;;13.25;66.37
48964;BME280;34776;48.180;16.420;2022-09-03T03:29:44;99773.78;;;13.22;66.37
48964;BME280;34776;48.180;16.420;2022-09-03T03:32:10;99769.50;;;13.19;66.34
48964;BME280;34776;48.180;16.420;2022-09-03T03:34:35;99770.44;;;13.18;66.82
48964;BME280;34776;48.180;16.420;2022-09-03T03:37:01;99765.41;;;13.14;67.11
48964;BME280;34776;48.180;16.420;2022-09-03T03:39:26;99769.13;;;13.11;66.84
48964;BME280;34776;48.180;16.420;2022-09-03T03:41:51;99764.84;;;13.09;66.83
48964;BME280;34776;48.180;16.420;2022-09-03T03:44:17;99766.06;;;13.03;67.41
48964;BME280;34776;48.180;16.420;2022-09-03T03:46:44;99769.78;;;13.00;67.31
48964;BME280;34776;48.180;16.420;2022-09-03T03:49:10;99764.63;;;12.97;67.68
48964;BME280;34776;48.180;16.420;2022-09-03T03:51:36;99775.59;;;12.93;67.59
48964;BME280;34776;48.180;16.420;2022-09-03T03:54:03;99780.38;;;12.88;67.31
48964;BME280;34776;48.180;16.420;2022-09-03T03:56:28;99772.75;;;12.82;67.94
48964;BME280;34776;48.180;16.420;2022-09-03T03:58:54;99772.16;;;12.76;68.18
48964;BME280;34776;48.180;16.420;2022-09-03T04:01:22;99779.38;;;12.74;68.34
48964;BME280;34776;48.180;16.420;2022-09-03T04:03:48;99779.38;;;12.74;68.88
48964;BME280;34776;48.180;16.420;2022-09-03T04:06:16;99778.53;;;12.74;68.80
48964;BME280;34776;48.180;16.420;2022-09-03T04:08:43;99782.81;;;12.76;68.40
48964;BME280;34776;48.180;16.420;2022-09-03T04:11:13;99787.22;;;12.77;68.57
48964;BME280;34776;48.180;16.420;2022-09-03T04:13:41;99782.94;;;12.75;68.91
48964;BME280;34776;48.180;16.420;2022-09-03T04:16:10;99795.56;;;12.71;68.80
48964;BME280;34776;48.180;16.420;2022-09-03T04:18:36;99795.00;;;12.66;68.62
48964;BME280;34776;48.180;16.420;2022-09-03T04:21:08;99794.03;;;12.67;68.92
48964;BME280;34776;48.180;16.420;2022-09-03T04:23:38;99787.94;;;12.65;68.93
48964;BME280;34776;48.180;16.420;2022-09-03T04:26:04;99783.59;;;12.64;69.13
48964;BME280;34776;48.180;16.420;2022-09-03T04:28:31;99788.03;;;12.64;69.42
48964;BME280;34776;48.180;16.420;2022-09-03T04:31:16;99788.91;;;12.64;70.43
48964;BME280;34776;48.180;16.420;2022-09-03T04:33:42;99792.34;;;12.66;69.24
48964;BME280;34776;48.180;16.420;2022-09-03T04:38:36;99805.06;;;12.61;69.56
48964;BME280;34776;48.180;16.420;2022-09-03T04:41:04;99793.56;;;12.61;69.54
48964;BME280;34776;48.180;16.420;2022-09-03T04:43:30;99800.34;;;12.66;69.67
48964;BME280;34776;48.180;16.420;2022-09-03T04:45:57;99793.13;;;12.68;69.83
48964;BME280;34776;48.180;16.420;2022-09-03T04:48:23;99792.91;;;12.71;69.72
48964;BME280;34776;48.180;16.420;2022-09-03T04:50:48;99797.09;;;12.75;70.05
48964;BME280;34776;48.180;16.420;2022-09-03T04:53:13;99794.34;;;12.77;69.43
48964;BME280;34776;48.180;16.420;2022-09-03T04:55:39;99799.69;;;12.77;69.89
48964;BME280;34776;48.180;16.420;2022-09-03T04:58:05;99802.16;;;12.80;69.79
48964;BME280;34776;48.180;16.420;2022-09-03T05:00:32;99803.78;;;12.83;69.51
48964;BME280;34776;48.180;16.420;2022-09-03T05:03:00;99808.94;;;12.86;69.32
48964;BME280;34776;48.180;16.420;2022-09-03T05:05:27;99797.41;;;12.85;69.59
48964;BME280;34776;48.180;16.420;2022-09-03T05:07:57;99798.34;;;12.84;69.85
48964;BME280;34776;48.180;16.420;2022-09-03T05:10:22;99795.50;;;12.87;70.23
48964;BME280;34776;48.180;16.420;2022-09-03T05:12:57;99797.97;;;12.90;70.55
48964;BME280;34776;48.180;16.420;2022-09-03T05:15:23;99803.03;;;12.95;70.09
48964;BME280;34776;48.180;16.420;2022-09-03T05:17:49;99808.19;;;12.98;70.06
48964;BME280;34776;48.180;16.420;2022-09-03T05:20:17;99808.75;;;13.03;70.14
48964;BME280;34776;48.180;16.420;2022-09-03T05:22:43;99805.72;;;13.09;70.14
48964;BME280;34776;48.180;16.420;2022-09-03T05:25:08;99798.47;;;13.11;70.55
48964;BME280;34776;48.180;16.420;2022-09-03T05:27:33;99801.03;;;13.13;70.36
48964;BME280;34776;48.180;16.420;2022-09-03T05:29:59;99800.00;;;13.15;70.34
48964;BME280;34776;48.180;16.420;2022-09-03T05:32:24;99801.31;;;13.23;70.30
48964;BME280;34776;48.180;16.420;2022-09-03T05:34:52;99795.81;;;13.26;70.76
48964;BME280;34776;48.180;16.420;2022-09-03T05:37:17;99802.69;;;13.30;70.27
48964;BME280;34776;48.180;16.420;2022-09-03T05:39:42;99800.56;;;13.35;70.21
48964;BME280;34776;48.180;16.420;2022-09-03T05:42:08;99794.69;;;13.44;69.74
48964;BME280;34776;48.180;16.420;2022-09-03T05:44:33;99793.13;;;13.54;69.57
48964;BME280;34776;48.180;16.420;2022-09-03T05:47:00;99791.78;;;13.62;69.25
48964;BME280;34776;48.180;16.420;2022-09-03T05:49:25;99792.91;;;13.72;69.06
48964;BME280;34776;48.180;16.420;2022-09-03T05:51:51;99800.53;;;13.78;68.93
48964;BME280;34776;48.180;16.420;2022-09-03T05:54:16;99798.47;;;13.81;69.39
48964;BME280;34776;48.180;16.420;2022-09-03T05:56:41;99793.41;;;13.91;68.89
48964;BME280;34776;48.180;16.420;2022-09-03T05:59:08;99788.34;;;14.01;68.99
48964;BME280;34776;48.180;16.420;2022-09-03T06:01:36;99797.72;;;14.07;69.08
48964;BME280;34776;48.180;16.420;2022-09-03T06:04:04;99794.66;;;14.13;68.68
48964;BME280;34776;48.180;16.420;2022-09-03T06:06:35;99795.88;;;14.21;68.75
48964;BME280;34776;48.180;16.420;2022-09-03T06:09:03;99798.88;;;14.30;68.84
48964;BME280;34776;48.180;16.420;2022-09-03T06:11:30;99797.84;;;14.32;68.55
48964;BME280;34776;48.180;16.420;2022-09-03T06:14:01;99799.38;;;14.49;68.47
48964;BME280;34776;48.180;16.420;2022-09-03T06:16:31;99803.03;;;14.61;68.05
48964;BME280;34776;48.180;16.420;2022-09-03T06:18:56;99802.44;;;14.70;68.22
48964;BME280;34776;48.180;16.420;2022-09-03T06:21:23;99796.44;;;14.79;67.90
48964;BME280;34776;48.180;16.420;2022-09-03T06:23:53;99785.09;;;14.89;67.75
48964;BME280;34776;48.180;16.420;2022-09-03T06:26:20;99778.13;;;14.99;67.99
48964;BME280;34776;48.180;16.420;2022-09-03T06:28:46;99780.03;;;15.10;67.31
48964;BME280;34776;48.180;16.420;2022-09-03T06:31:16;99782.59;;;15.24;66.98
48964;BME280;34776;48.180;16.420;2022-09-03T06:33:42;99784.00;;;15.30;66.74
48964;BME280;34776;48.180;16.420;2022-09-03T06:36:18;99785.91;;;15.40;66.81
48964;BME280;34776;48.180;16.420;2022-09-03T06:38:44;99795.31;;;15.46;67.49
48964;BME280;34776;48.180;16.420;2022-09-03T06:41:15;99795.19;;;15.60;66.32
48964;BME280;34776;48.180;16.420;2022-09-03T06:43:48;99793.56;;;15.71;66.02
48964;BME280;34776;48.180;16.420;2022-09-03T06:46:16;99791.72;;;15.84;65.93
48964;BME280;34776;48.180;16.420;2022-09-03T06:48:41;99794.34;;;15.97;65.34
48964;BME280;34776;48.180;16.420;2022-09-03T06:51:13;99786.97;;;16.12;65.45
48964;BME280;34776;48.180;16.420;2022-09-03T06:53:44;99791.34;;;16.37;65.06
48964;BME280;34776;48.180;16.420;2022-09-03T06:56:14;99781.38;;;16.86;63.72
48964;BME280;34776;48.180;16.420;2022-09-03T06:58:46;99777.19;;;18.48;60.75
48964;BME280;34776;48.180;16.420;2022-09-03T07:01:17;99781.91;;;22.07;52.89
48964;BME280;34776;48.180;16.420;2022-09-03T07:03:44;99785.63;;;24.48;47.70
48964;BME280;34776;48.180;16.420;2022-09-03T07:06:13;99781.69;;;26.27;42.92
48964;BME280;34776;48.180;16.420;2022-09-03T07:08:39;99780.16;;;27.83;41.75
48964;BME280;34776;48.180;16.420;2022-09-03T07:11:11;99782.63;;;28.36;39.48
48964;BME280;34776;48.180;16.420;2022-09-03T07:13:42;99783.69;;;29.41;36.76
48964;BME280;34776;48.180;16.420;2022-09-03T07:16:20;99775.72;;;29.94;34.23
48964;BME280;34776;48.180;16.420;2022-09-03T07:18:47;99779.25;;;31.09;36.00
48964;BME280;34776;48.180;16.420;2022-09-03T07:21:15;99768.00;;;31.96;33.78
48964;BME280;34776;48.180;16.420;2022-09-03T07:23:41;99773.94;;;32.88;32.92
48964;BME280;34776;48.180;16.420;2022-09-03T07:26:13;99774.31;;;33.91;30.18
48964;BME280;34776;48.180;16.420;2022-09-03T07:28:40;99767.91;;;34.39;30.12
48964;BME280;34776;48.180;16.420;2022-09-03T07:31:10;99769.13;;;34.73;29.47
48964;BME280;34776;48.180;16.420;2022-09-03T07:33:37;99782.16;;;33.75;28.84
48964;BME280;34776;48.180;16.420;2022-09-03T07:36:10;99773.19;;;32.49;30.40
48964;BME280;34776;48.180;16.420;2022-09-03T07:38:38;99766.84;;;33.24;30.14
48964;BME280;34776;48.180;16.420;2022-09-03T07:41:06;99771.44;;;34.16;28.51
48964;BME280;34776;48.180;16.420;2022-09-03T07:43:37;99770.69;;;34.39;26.82
48964;BME280;34776;48.180;16.420;2022-09-03T07:46:08;99768.81;;;35.69;26.67
48964;BME280;34776;48.180;16.420;2022-09-03T07:48:41;99765.16;;;36.38;25.81
48964;BME280;34776;48.180;16.420;2022-09-03T07:51:08;99761.75;;;36.31;25.47
48964;BME280;34776;48.180;16.420;2022-09-03T07:53:34;99765.84;;;36.45;25.39
48964;BME280;34776;48.180;16.420;2022-09-03T07:56:04;99760.63;;;36.32;25.24
48964;BME280;34776;48.180;16.420;2022-09-03T07:58:31;99757.19;;;36.25;25.21
48964;BME280;34776;48.180;16.420;2022-09-03T08:00:58;99762.56;;;35.62;26.03
48964;BME280;34776;48.180;16.420;2022-09-03T08:03:24;99761.16;;;35.88;25.74
48964;BME280;34776;48.180;16.420;2022-09-03T08:05:49;99765.75;;;36.40;25.62
48964;BME280;34776;48.180;16.420;2022-09-03T08:08:15;99768.75;;;36.67;24.64
48964;BME280;34776;48.180;16.420;2022-09-03T08:10:42;99767.34;;;37.04;24.24
48964;BME280;34776;48.180;16.420;2022-09-03T08:13:08;99755.28;;;37.49;23.41
48964;BME280;34776;48.180;16.420;2022-09-03T08:15:35;99759.72;;;37.50;23.12
48964;BME280;34776;48.180;16.420;2022-09-03T08:18:01;99750.03;;;37.30;23.71
48964;BME280;34776;48.180;16.420;2022-09-03T08:20:27;99758.94;;;37.32;23.46
48964;BME280;34776;48.180;16.420;2022-09-03T08:22:59;99749.94;;;36.86;22.42
48964;BME280;34776;48.180;16.420;2022-09-03T08:25:25;99752.59;;;36.47;23.58
48964;BME280;34776;48.180;16.420;2022-09-03T08:27:51;99754.44;;;36.58;24.04
48964;BME280;34776;48.180;16.420;2022-09-03T08:30:16;99755.63;;;36.96;23.51
48964;BME280;34776;48.180;16.420;2022-09-03T08:32:42;99745.03;;;36.26;24.31
48964;BME280;34776;48.180;16.420;2022-09-03T08:35:07;99752.47;;;35.96;24.24
48964;BME280;34776;48.180;16.420;2022-09-03T08:37:33;99752.19;;;35.05;24.55
48964;BME280;34776;48.180;16.420;2022-09-03T08:39:59;99750.50;;;34.27;25.76
48964;BME280;34776;48.180;16.420;2022-09-03T08:42:40;99731.38;;;34.55;24.69
48964;BME280;34776;48.180;16.420;2022-09-03T08:45:14;99740.81;;;34.48;25.87
48964;BME280;34776;48.180;16.420;2022-09-03T08:47:48;99732.53;;;33.02;26.27
48964;BME280;34776;48.180;16.420;2022-09-03T08:53:11;99733.75;;;33.06;26.79
48964;BME280;34776;48.180;16.420;2022-09-03T08:58:33;99733.19;;;31.31;29.33
48964;BME280;34776;48.180;16.420;2022-09-03T09:01:13;99735.56;;;30.68;29.53
48964;BME280;34776;48.180;16.420;2022-09-03T09:04:04;99737.91;;;30.71;29.80
48964;BME280;34776;48.180;16.420;2022-09-03T09:20:35;99733.06;;;27.96;34.43
48964;BME280;34776;48.180;16.420;2022-09-03T09:23:07;99740.13;;;27.90;34.06
48964;BME280;34776;48.180;16.420;2022-09-03T09:25:43;99743.91;;;27.89;34.26
48964;BME280;34776;48.180;16.420;2022-09-03T09:28:22;99739.13;;;27.61;34.46
48964;BME280;34776;48.180;16.420;2022-09-03T09:30:50;99731.94;;;27.39;34.73
48964;BME280;34776;48.180;16.420;2022-09-03T09:33:17;99730.78;;;27.33;34.73
48964;BME280;34776;48.180;16.420;2022-09-03T09:35:43;99727.97;;;26.97;34.78
48964;BME280;34776;48.180;16.420;2022-09-03T09:38:09;99738.09;;;26.27;36.07
48964;BME280;34776;48.180;16.420;2022-09-03T09:40:37;99733.91;;;26.39;35.83
48964;BME280;34776;48.180;16.420;2022-09-03T09:45:38;99733.91;;;26.39;36.52
48964;BME280;34776;48.180;16.420;2022-09-03T09:48:09;99732.25;;;26.76;35.66
48964;BME280;34776;48.180;16.420;2022-09-03T09:50:37;99726.91;;;26.83;35.09
48964;BME280;34776;48.180;16.420;2022-09-03T09:53:07;99724.53;;;26.65;35.43
48964;BME280;34776;48.180;16.420;2022-09-03T09:55:32;99721.81;;;26.65;35.96
48964;BME280;34776;48.180;16.420;2022-09-03T09:58:08;99714.94;;;26.69;36.37
48964;BME280;34776;48.180;16.420;2022-09-03T10:00:35;99709.13;;;26.72;36.21
48964;BME280;34776;48.180;16.420;2022-09-03T10:03:08;99721.28;;;26.46;36.91
48964;BME280;34776;48.180;16.420;2022-09-03T10:05:35;99714.13;;;26.22;36.75
48964;BME280;34776;48.180;16.420;2022-09-03T10:08:18;99716.31;;;26.27;37.28
48964;BME280;34776;48.180;16.420;2022-09-03T10:10:46;99720.53;;;26.52;36.84
48964;BME280;34776;48.180;16.420;2022-09-03T10:13:18;99719.19;;;26.10;37.20
48964;BME280;34776;48.180;16.420;2022-09-03T10:16:07;99715.97;;;25.76;38.64
48964;BME280;34776;48.180;16.420;2022-09-03T10:21:31;99715.53;;;25.95;38.68
48964;BME280;34776;48.180;16.420;2022-09-03T10:26:40;99722.56;;;26.12;37.83
48964;BME280;34776;48.180;16.420;2022-09-03T10:29:11;99721.75;;;26.04;37.96
48964;BME280;34776;48.180;16.420;2022-09-03T10:35:02;99704.69;;;26.71;36.94
48964;BME280;34776;48.180;16.420;2022-09-03T10:40:54;99698.78;;;27.12;36.73
48964;BME280;34776;48.180;16.420;2022-09-03T10:46:16;99697.72;;;27.58;35.87
48964;BME280;34776;48.180;16.420;2022-09-03T10:51:40;99689.66;;;27.86;34.88
48964;BME280;34776;48.180;16.420;2022-09-03T10:56:56;99681.25;;;27.66;35.11
48964;BME280;34776;48.180;16.420;2022-09-03T11:02:19;99682.25;;;27.28;35.75
48964;BME280;34776;48.180;16.420;2022-09-03T11:05:06;99697.22;;;27.03;35.85
48964;BME280;34776;48.180;16.420;2022-09-03T11:07:36;99693.19;;;27.65;35.54
48964;BME280;34776;48.180;16.420;2022-09-03T11:10:11;99689.59;;;28.22;34.13
48964;BME280;34776;48.180;16.420;2022-09-03T11:18:21;99679.84;;;29.32;32.42
48964;BME280;34776;48.180;16.420;2022-09-03T11:20:50;99673.59;;;29.52;32.66
48964;BME280;34776;48.180;16.420;2022-09-03T11:23:20;99676.53;;;29.44;32.20
48964;BME280;34776;48.180;16.420;2022-09-03T11:25:52;99681.94;;;29.24;32.97
48964;BME280;34776;48.180;16.420;2022-09-03T11:28:35;99672.75;;;29.45;32.57
48964;BME280;34776;48.180;16.420;2022-09-03T11:31:22;99671.69;;;29.46;32.53
48964;BME280;34776;48.180;16.420;2022-09-03T11:33:57;99675.97;;;29.68;31.55
48964;BME280;34776;48.180;16.420;2022-09-03T11:36:36;99675.34;;;29.66;31.30
48964;BME280;34776;48.180;16.420;2022-09-03T11:41:40;99680.94;;;30.26;31.01
48964;BME280;34776;48.180;16.420;2022-09-03T11:44:39;99670.84;;;30.33;30.66
48964;BME280;34776;48.180;16.420;2022-09-03T11:47:37;99681.81;;;30.60;29.78
48964;BME280;34776;48.180;16.420;2022-09-03T11:50:28;99663.22;;;30.02;30.97
48964;BME280;34776;48.180;16.420;2022-09-03T11:53:23;99657.75;;;30.15;30.25
48964;BME280;34776;48.180;16.420;2022-09-03T11:58:30;99663.25;;;30.42;30.80
48964;BME280;34776;48.180;16.420;2022-09-03T12:01:15;99653.69;;;30.78;29.26
48964;BME280;34776;48.180;16.420;2022-09-03T12:04:05;99647.09;;;31.12;29.48
48964;BME280;34776;48.180;16.420;2022-09-03T12:14:36;99663.63;;;31.51;28.82
48964;BME280;34776;48.180;16.420;2022-09-03T12:20:12;99659.72;;;31.27;28.19
48964;BME280;34776;48.180;16.420;2022-09-03T12:22:38;99659.38;;;30.97;29.35
48964;BME280;34776;48.180;16.420;2022-09-03T12:25:12;99663.38;;;31.01;28.47
48964;BME280;34776;48.180;16.420;2022-09-03T12:27:39;99658.34;;;30.98;28.82
48964;BME280;34776;48.180;16.420;2022-09-03T12:30:15;99664.91;;;30.63;29.59
48964;BME280;34776;48.180;16.420;2022-09-03T12:32:41;99662.41;;;30.35;29.47
48964;BME280;34776;48.180;16.420;2022-09-03T12:35:27;99656.06;;;30.01;30.08
48964;BME280;34776;48.180;16.420;2022-09-03T12:37:53;99660.09;;;30.45;29.77
48964;BME280;34776;48.180;16.420;2022-09-03T12:40:29;99655.66;;;30.44;28.87
48964;BME280;34776;48.180;16.420;2022-09-03T12:42:55;99659.41;;;29.90;30.12
48964;BME280;34776;48.180;16.420;2022-09-03T12:45:42;99650.78;;;30.13;30.08
48964;BME280;34776;48.180;16.420;2022-09-03T12:48:12;99657.53;;;30.24;29.25
48964;BME280;34776;48.180;16.420;2022-09-03T12:50:40;99656.03;;;30.28;29.69
48964;BME280;34776;48.180;16.420;2022-09-03T12:53:07;99650.41;;;30.29;29.27
48964;BME280;34776;48.180;16.420;2022-09-03T12:55:45;99647.63;;;30.23;29.38
48964;BME280;34776;48.180;16.420;2022-09-03T12:58:22;99639.84;;;30.33;29.44
48964;BME280;34776;48.180;16.420;2022-09-03T13:00:57;99643.44;;;30.40;29.43
48964;BME280;34776;48.180;16.420;2022-09-03T13:03:31;99639.84;;;30.46;29.23
48964;BME280;34776;48.180;16.420;2022-09-03T13:06:09;99635.19;;;30.53;28.66
48964;BME280;34776;48.180;16.420;2022-09-03T13:08:46;99628.38;;;30.76;28.60
48964;BME280;34776;48.180;16.420;2022-09-03T13:11:16;99626.81;;;31.13;28.70
48964;BME280;34776;48.180;16.420;2022-09-03T13:14:12;99625.06;;;31.26;28.59
48964;BME280;34776;48.180;16.420;2022-09-03T13:24:53;99632.31;;;29.40;30.42
48964;BME280;34776;48.180;16.420;2022-09-03T13:30:21;99619.19;;;29.22;30.38
48964;BME280;34776;48.180;16.420;2022-09-03T13:33:52;99615.53;;;28.67;31.15
48964;BME280;34776;48.180;16.420;2022-09-03T13:38:56;99608.81;;;28.13;32.77
48964;BME280;34776;48.180;16.420;2022-09-03T13:44:46;99607.53;;;27.66;33.24
48964;BME280;34776;48.180;16.420;2022-09-03T13:47:18;99607.78;;;27.49;33.46
48964;BME280;34776;48.180;16.420;2022-09-03T13:49:50;99602.16;;;27.21;34.17
48964;BME280;34776;48.180;16.420;2022-09-03T13:56:12;99596.63;;;27.29;34.08
48964;BME280;34776;48.180;16.420;2022-09-03T13:58:26;99602.09;;;27.29;34.49
48964;BME280;34776;48.180;16.420;2022-09-03T14:06:18;99591.22;;;27.72;33.65
48964;BME280;34776;48.180;16.420;2022-09-03T14:09:26;99592.00;;;27.45;33.64
48964;BME280;34776;48.180;16.420;2022-09-03T14:12:04;99587.63;;;27.14;34.24
48964;BME280;34776;48.180;16.420;2022-09-03T14:15:04;99597.94;;;27.33;34.31
48964;BME280;34776;48.180;16.420;2022-09-03T14:20:23;99591.06;;;27.59;34.13
48964;BME280;34776;48.180;16.420;2022-09-03T14:25:34;99588.13;;;27.97;33.54
48964;BME280;34776;48.180;16.420;2022-09-03T14:36:10;99594.13;;;27.92;33.53
48964;BME280;34776;48.180;16.420;2022-09-03T14:46:59;99587.44;;;27.30;34.46
48964;BME280;34776;48.180;16.420;2022-09-03T14:58:06;99586.25;;;27.40;34.56
48964;BME280;34776;48.180;16.420;2022-09-03T15:08:47;99584.22;;;26.76;35.88
48964;BME280;34776;48.180;16.420;2022-09-03T15:11:16;99589.84;;;26.89;35.52
48964;BME280;34776;48.180;16.420;2022-09-03T15:17:19;99586.19;;;26.67;36.06
48964;BME280;34776;48.180;16.420;2022-09-03T15:20:02;99587.66;;;26.55;36.46
48964;BME280;34776;48.180;16.420;2022-09-03T15:23:01;99588.78;;;26.45;36.55
48964;BME280;34776;48.180;16.420;2022-09-03T15:28:15;99582.22;;;26.55;36.34
48964;BME280;34776;48.180;16.420;2022-09-03T15:31:01;99580.63;;;26.60;36.38
48964;BME280;34776;48.180;16.420;2022-09-03T15:36:26;99592.47;;;26.52;36.53
48964;BME280;34776;48.180;16.420;2022-09-03T15:39:03;99597.59;;;26.47;36.62
48964;BME280;34776;48.180;16.420;2022-09-03T15:41:40;99592.16;;;26.47;36.46
48964;BME280;34776;48.180;16.420;2022-09-03T15:44:14;99596.19;;;26.37;36.98
48964;BME280;34776;48.180;16.420;2022-09-03T15:46:47;99591.84;;;26.12;37.30
48964;BME280;34776;48.180;16.420;2022-09-03T15:55:05;99588.78;;;25.69;38.19
48964;BME280;34776;48.180;16.420;2022-09-03T15:57:39;99584.44;;;25.60;38.31
48964;BME280;34776;48.180;16.420;2022-09-03T16:00:12;99595.50;;;25.59;38.24
48964;BME280;34776;48.180;16.420;2022-09-03T16:02:58;99597.00;;;25.61;38.22
48964;BME280;34776;48.180;16.420;2022-09-03T16:05:44;99601.13;;;25.57;38.34
48964;BME280;34776;48.180;16.420;2022-09-03T16:10:49;99598.81;;;25.46;38.90
48964;BME280;34776;48.180;16.420;2022-09-03T16:16:09;99605.19;;;25.30;39.37
48964;BME280;34776;48.180;16.420;2022-09-03T16:18:36;99609.19;;;25.11;39.73
48964;BME280;34776;48.180;16.420;2022-09-03T16:21:09;99604.66;;;25.03;39.66
48964;BME280;34776;48.180;16.420;2022-09-03T16:42:51;99612.81;;;24.39;42.00
48964;BME280;34776;48.180;16.420;2022-09-03T16:45:49;99605.72;;;24.30;41.72
48964;BME280;34776;48.180;16.420;2022-09-03T16:51:16;99618.63;;;24.28;41.87
48964;BME280;34776;48.180;16.420;2022-09-03T16:53:54;99611.84;;;24.16;41.62